Time;durP1;ratioP1;P1;durP2;ratioP2;P2;SDS_P1;SDS_P2;PMS_P1;PMS_P2;Temp;Humidity;BMP_temperature;BMP_pressure;BME280_temperature;BME280_humidity;BME280_pressure;Samples;Min_cycle;Max_cycle;Signal;HPM_P1;HPM_P2
2022/12/28 00:00:19;;;;;;;2.25;2.05;;;;;;;9.64;nan;-24086.44;5015243;28;20175;-70
2022/12/28 00:02:45;;;;;;;2.20;1.90;;;;;;;9.78;nan;-24090.25;5014585;28;20184;-70
2022/12/28 00:05:10;;;;;;;2.60;1.85;;;;;;;9.82;nan;-24091.38;5014551;28;20235;-70
2022/12/28 00:07:36;;;;;;;2.40;2.13;;;;;;;10.15;nan;-24100.53;5015058;28;20168;-70
2022/12/28 00:10:01;;;;;;;3.65;2.13;;;;;;;10.28;nan;-24104.22;5014946;28;20584;-71
2022/12/28 00:12:28;;;;;;;2.88;2.15;;;;;;;10.02;nan;-24096.88;5014939;28;20168;-70
2022/12/28 00:14:53;;;;;;;3.35;2.47;;;;;;;9.96;nan;-24095.19;5014841;28;20171;-70
2022/12/28 00:17:19;;;;;;;2.85;2.28;;;;;;;9.88;nan;-24093.06;5014657;28;20266;-70
2022/12/28 00:19:44;;;;;;;3.63;2.35;;;;;;;10.41;nan;-24107.75;5014390;28;20196;-70
2022/12/28 00:22:10;;;;;;;2.20;1.90;;;;;;;10.14;nan;-24100.25;5014970;28;20210;-70
2022/12/28 00:24:35;;;;;;;3.50;2.53;;;;;;;9.99;nan;-24096.16;5014743;28;20172;-70
2022/12/28 00:27:00;;;;;;;2.65;2.20;;;;;;;9.98;nan;-24095.75;5014742;28;20613;-70
2022/12/28 00:29:26;;;;;;;3.05;2.00;;;;;;;9.88;nan;-24092.91;5014195;28;20705;-70
2022/12/28 00:31:51;;;;;;;2.97;2.17;;;;;;;10.19;nan;-24101.81;5014528;28;20209;-71
2022/12/28 00:34:17;;;;;;;2.45;2.20;;;;;;;9.80;nan;-24090.66;5014698;28;20226;-70
2022/12/28 00:36:42;;;;;;;3.85;2.47;;;;;;;9.88;nan;-24092.91;5013552;28;20176;-70
2022/12/28 00:39:08;;;;;;;5.25;2.20;;;;;;;9.91;nan;-24093.78;5015867;28;20199;-70
2022/12/28 00:41:33;;;;;;;2.80;2.08;;;;;;;10.27;nan;-24103.94;5017836;28;20194;-70
2022/12/28 00:43:59;;;;;;;6.10;2.50;;;;;;;10.09;nan;-24098.84;5014858;28;20197;-70
2022/12/28 00:46:24;;;;;;;3.67;2.72;;;;;;;10.25;nan;-24103.22;5019082;28;20219;-71
2022/12/28 00:48:50;;;;;;;4.60;2.67;;;;;;;10.23;nan;-24102.81;5016014;28;20208;-70
2022/12/28 00:51:17;;;;;;;2.15;1.95;;;;;;;9.96;nan;-24095.19;5014328;28;20242;-70
2022/12/28 00:53:43;;;;;;;2.70;2.40;;;;;;;10.26;nan;-24103.66;5014547;28;20226;-70
2022/12/28 00:56:10;;;;;;;3.72;2.38;;;;;;;10.25;nan;-24103.22;5014425;28;20262;-70
2022/12/28 00:58:36;;;;;;;3.55;2.00;;;;;;;9.85;nan;-24092.22;5014162;28;20208;-71
2022/12/28 01:01:02;;;;;;;1.98;1.77;;;;;;;10.24;nan;-24102.94;5013965;28;20272;-70
2022/12/28 01:03:27;;;;;;;3.17;2.30;;;;;;;9.80;nan;-24090.81;5013639;28;20220;-71
2022/12/28 01:05:53;;;;;;;2.40;1.98;;;;;;;9.76;nan;-24089.81;5014597;28;20172;-71
2022/12/28 01:08:18;;;;;;;3.13;2.47;;;;;;;9.83;nan;-24091.50;5013788;28;20208;-70
2022/12/28 01:10:44;;;;;;;2.97;2.13;;;;;;;10.12;nan;-24099.69;5012543;28;20194;-70
2022/12/28 01:13:09;;;;;;;2.13;1.80;;;;;;;10.12;nan;-24099.69;5014087;28;20193;-71
2022/12/28 01:15:35;;;;;;;2.65;2.30;;;;;;;9.88;nan;-24092.91;5013919;28;20662;-71
2022/12/28 01:18:00;;;;;;;1.92;1.83;;;;;;;9.89;nan;-24093.34;5013572;28;20207;-71
2022/12/28 01:20:26;;;;;;;3.17;2.25;;;;;;;9.97;nan;-24095.59;5013879;28;20184;-70
2022/12/28 01:22:51;;;;;;;2.90;2.00;;;;;;;9.89;nan;-24093.22;5018646;28;20266;-70
2022/12/28 01:25:16;;;;;;;1.95;1.75;;;;;;;10.10;nan;-24099.13;5014033;28;20187;-70
2022/12/28 01:27:42;;;;;;;2.97;2.00;;;;;;;9.77;nan;-24089.94;5013265;28;20176;-71
2022/12/28 01:30:09;;;;;;;2.95;1.90;;;;;;;9.80;nan;-24090.66;5013289;28;20675;-71
2022/12/28 01:32:35;;;;;;;1.87;1.73;;;;;;;9.88;nan;-24092.91;5013768;28;20203;-70
2022/12/28 01:35:00;;;;;;;2.53;2.10;;;;;;;10.04;nan;-24097.44;5013527;28;20161;-71
2022/12/28 01:37:25;;;;;;;1.95;1.80;;;;;;;9.90;nan;-24093.47;5013575;28;20172;-71
2022/12/28 01:39:51;;;;;;;2.63;2.00;;;;;;;10.11;nan;-24099.41;5013007;28;20213;-71
2022/12/28 01:42:18;;;;;;;4.55;2.63;;;;;;;10.39;nan;-24107.31;5013830;28;20199;-71
2022/12/28 01:44:50;;;;;;;2.88;1.70;;;;;;;10.17;nan;-24101.13;5013420;28;20176;-70
2022/12/28 01:47:24;;;;;;;2.65;2.20;;;;;;;9.87;nan;-24092.63;5013986;28;20187;-70
2022/12/28 01:49:57;;;;;;;4.50;2.63;;;;;;;10.12;nan;-24099.69;5013251;28;20227;-71
2022/12/28 01:52:35;;;;;;;3.38;1.90;;;;;;;9.81;nan;-24091.09;5013335;28;20179;-70
2022/12/28 01:55:15;;;;;;;2.25;1.95;;;;;;;9.93;nan;-24094.34;5013117;28;20247;-71
2022/12/28 01:57:47;;;;;;;3.03;1.90;;;;;;;10.12;nan;-24099.84;5012982;28;20204;-70
2022/12/28 02:00:14;;;;;;;2.92;1.95;;;;;;;10.15;nan;-24100.69;5012828;28;20646;-71
2022/12/28 02:02:45;;;;;;;2.33;1.73;;;;;;;9.83;nan;-24091.66;5013101;28;20179;-71
2022/12/28 02:05:11;;;;;;;2.25;1.88;;;;;;;9.81;nan;-24090.94;5012578;28;20285;-71
2022/12/28 02:07:46;;;;;;;1.73;1.63;;;;;;;9.79;nan;-24090.53;5012839;28;20165;-71
2022/12/28 02:10:14;;;;;;;2.00;1.85;;;;;;;9.81;nan;-24090.94;5012727;28;20199;-70
2022/12/28 02:12:40;;;;;;;2.42;2.00;;;;;;;10.10;nan;-24099.28;5012799;28;20165;-71
2022/12/28 02:15:06;;;;;;;2.95;1.98;;;;;;;9.69;nan;-24087.69;5012937;28;20172;-71
2022/12/28 02:17:31;;;;;;;1.92;1.45;;;;;;;9.99;nan;-24096.16;5012597;28;20655;-70
2022/12/28 02:19:57;;;;;;;2.78;1.92;;;;;;;9.74;nan;-24089.09;5012876;28;20176;-71
2022/12/28 02:22:31;;;;;;;2.28;1.58;;;;;;;10.00;nan;-24096.44;5012764;28;20180;-72
2022/12/28 02:25:17;;;;;;;2.40;1.77;;;;;;;10.02;nan;-24097.03;5012717;28;20179;-71
2022/12/28 02:28:10;;;;;;;1.77;1.63;;;;;;;9.94;nan;-24094.63;5012838;28;20188;-71
2022/12/28 02:30:42;;;;;;;2.07;1.67;;;;;;;9.74;nan;-24089.25;5012738;28;20183;-71
2022/12/28 02:33:28;;;;;;;2.47;1.90;;;;;;;9.96;nan;-24095.19;5012433;28;20632;-71
2022/12/28 02:36:03;;;;;;;2.25;1.55;;;;;;;10.11;nan;-24099.56;5012551;28;20237;-71
2022/12/28 02:38:48;;;;;;;2.17;1.97;;;;;;;9.67;nan;-24087.13;5012118;28;20542;-71
2022/12/28 02:41:23;;;;;;;2.53;2.10;;;;;;;9.93;nan;-24094.34;5012071;28;20221;-71
2022/12/28 02:43:49;;;;;;;2.20;1.88;;;;;;;9.98;nan;-24095.88;5012130;28;20639;-71
2022/12/28 02:52:24;;;;;;;2.37;2.10;;;;;;;10.14;nan;-24100.25;5012147;28;20185;-71
2022/12/28 02:57:48;;;;;;;3.27;2.03;;;;;;;10.16;nan;-24100.84;5012219;28;20230;-71
2022/12/28 03:00:19;;;;;;;2.57;2.07;;;;;;;10.04;nan;-24097.44;5012276;28;20184;-71
2022/12/28 03:03:06;;;;;;;2.15;1.50;;;;;;;10.02;nan;-24097.03;5012223;28;20282;-71
2022/12/28 03:08:53;;;;;;;1.98;1.83;;;;;;;10.00;nan;-24096.31;5011991;28;20238;-70
2022/12/28 03:11:26;;;;;;;1.88;1.75;;;;;;;9.88;nan;-24092.91;5012111;28;20176;-71
2022/12/28 03:14:02;;;;;;;1.98;1.70;;;;;;;9.99;nan;-24096.03;5011930;28;20179;-70
2022/12/28 03:25:41;;;;;;;2.65;1.88;;;;;;;9.86;nan;-24092.34;5013749;28;20176;-70
2022/12/28 03:33:07;;;;;;;2.42;1.83;;;;;;;9.42;nan;-24080.22;5015607;28;20175;-71
2022/12/28 03:35:42;;;;;;;3.63;1.92;;;;;;;9.16;nan;-24073.00;5015620;28;20259;-70
2022/12/28 03:38:26;;;;;;;1.77;1.58;;;;;;;9.27;nan;-24076.09;5015422;28;20533;-70
2022/12/28 03:41:06;;;;;;;2.20;2.00;;;;;;;9.37;nan;-24078.78;5015552;28;20231;-71
2022/12/28 03:43:44;;;;;;;3.42;2.20;;;;;;;9.65;nan;-24086.72;5015085;28;20533;-71
2022/12/28 03:46:37;;;;;;;2.80;2.25;;;;;;;9.66;nan;-24086.84;5015762;28;20182;-70
2022/12/28 03:49:03;;;;;;;4.05;2.65;;;;;;;9.63;nan;-24086.00;5015718;28;20289;-70
2022/12/28 03:51:32;;;;;;;3.00;2.20;;;;;;;8.67;nan;-24059.13;5015467;28;20608;-70
2022/12/28 03:53:57;;;;;;;2.38;1.85;;;;;;;9.52;nan;-24083.03;5013834;28;20184;-71
2022/12/28 03:56:25;;;;;;;3.42;1.90;;;;;;;9.26;nan;-24075.69;5015224;28;20179;-70
2022/12/28 03:58:51;;;;;;;3.47;2.40;;;;;;;9.24;nan;-24075.13;5015189;28;20666;-71
2022/12/28 04:01:17;;;;;;;3.10;2.10;;;;;;;9.53;nan;-24083.31;5015300;28;20218;-71
2022/12/28 04:03:43;;;;;;;2.53;1.95;;;;;;;9.56;nan;-24084.16;5015048;28;20232;-70
2022/12/28 04:06:12;;;;;;;2.85;2.13;;;;;;;9.66;nan;-24086.97;5015484;28;20183;-71
2022/12/28 04:08:38;;;;;;;3.13;2.17;;;;;;;9.05;nan;-24069.75;5014780;28;20208;-71
2022/12/28 04:11:04;;;;;;;2.35;2.08;;;;;;;9.11;nan;-24071.59;5014341;28;20606;-71
2022/12/28 04:13:30;;;;;;;1.95;1.67;;;;;;;9.18;nan;-24073.56;5014886;28;20643;-71
2022/12/28 04:16:03;;;;;;;5.57;1.90;;;;;;;9.53;nan;-24083.31;5015273;28;20226;-71
2022/12/28 04:18:30;;;;;;;2.85;2.22;;;;;;;9.50;nan;-24082.31;5015000;28;20178;-71
2022/12/28 04:20:57;;;;;;;1.77;1.65;;;;;;;9.11;nan;-24071.59;5015263;28;20180;-71
2022/12/28 04:23:22;;;;;;;4.18;2.03;;;;;;;9.50;nan;-24082.47;5013313;28;20184;-71
2022/12/28 04:26:10;;;;;;;2.40;1.88;;;;;;;9.40;nan;-24079.50;5014708;28;20180;-71
2022/12/28 04:28:36;;;;;;;2.25;1.90;;;;;;;9.51;nan;-24082.75;5014172;28;20222;-71
2022/12/28 04:31:03;;;;;;;3.45;1.77;;;;;;;9.49;nan;-24082.19;5015001;28;20177;-70
2022/12/28 04:33:31;;;;;;;3.17;2.10;;;;;;;9.13;nan;-24072.00;5014396;28;20647;-71
2022/12/28 04:36:05;;;;;;;3.03;2.15;;;;;;;9.12;nan;-24071.72;5014802;28;20241;-70
2022/12/28 04:38:31;;;;;;;2.35;2.00;;;;;;;9.45;nan;-24081.06;5014744;28;20176;-70
2022/12/28 04:40:56;;;;;;;3.50;2.45;;;;;;;9.19;nan;-24073.72;5014578;28;20169;-71
2022/12/28 04:43:22;;;;;;;1.77;1.67;;;;;;;9.30;nan;-24076.81;5014604;28;20626;-70
2022/12/28 04:45:57;;;;;;;2.10;1.90;;;;;;;9.24;nan;-24075.13;5014089;28;20172;-70
2022/12/28 04:48:24;;;;;;;1.73;1.63;;;;;;;9.35;nan;-24078.09;5014562;28;20174;-71
2022/12/28 04:50:50;;;;;;;2.30;2.00;;;;;;;9.41;nan;-24079.91;5014424;28;20204;-70
2022/12/28 04:53:15;;;;;;;3.40;2.03;;;;;;;9.14;nan;-24072.44;5014231;28;20269;-71
2022/12/28 04:55:41;;;;;;;2.45;1.95;;;;;;;9.52;nan;-24083.03;5012952;28;20234;-70
2022/12/28 04:58:06;;;;;;;1.75;1.65;;;;;;;9.05;nan;-24069.75;5013941;28;20176;-71
2022/12/28 05:00:31;;;;;;;2.30;2.03;;;;;;;9.40;nan;-24079.50;5014843;28;20218;-70
2022/12/28 05:02:58;;;;;;;3.03;2.25;;;;;;;9.02;nan;-24068.91;5014136;28;20180;-70
2022/12/28 05:05:24;;;;;;;2.08;1.95;;;;;;;9.13;nan;-24072.16;5014302;28;20593;-71
2022/12/28 05:07:50;;;;;;;3.50;2.25;;;;;;;9.36;nan;-24078.50;5014294;28;20206;-71
2022/12/28 05:10:15;;;;;;;3.00;2.50;;;;;;;9.52;nan;-24083.03;5013942;28;20576;-71
2022/12/28 05:12:41;;;;;;;2.42;2.22;;;;;;;9.54;nan;-24083.59;5014169;28;20259;-71
2022/12/28 05:15:07;;;;;;;2.00;1.70;;;;;;;9.38;nan;-24078.94;5013801;28;20230;-71
2022/12/28 05:17:33;;;;;;;4.22;2.00;;;;;;;9.41;nan;-24079.78;5013366;28;20553;-70
2022/12/28 05:19:58;;;;;;;2.35;2.15;;;;;;;9.31;nan;-24077.09;5014236;28;20168;-71
2022/12/28 05:22:23;;;;;;;2.00;1.77;;;;;;;9.37;nan;-24078.78;5014342;28;20184;-71
2022/12/28 05:24:49;;;;;;;2.33;2.10;;;;;;;8.91;nan;-24065.78;5013657;28;20251;-71
2022/12/28 05:27:14;;;;;;;2.33;2.13;;;;;;;9.19;nan;-24073.84;5013453;28;20159;-70
2022/12/28 05:29:40;;;;;;;2.27;2.07;;;;;;;9.56;nan;-24084.03;5013976;28;20291;-70
2022/12/28 05:32:05;;;;;;;2.20;1.80;;;;;;;9.62;nan;-24085.72;5013718;28;20168;-70
2022/12/28 05:34:31;;;;;;;6.68;2.33;;;;;;;9.14;nan;-24072.28;5013925;28;20279;-71
2022/12/28 05:36:56;;;;;;;2.47;2.15;;;;;;;9.23;nan;-24074.97;5013326;28;20251;-70
2022/12/28 05:39:21;;;;;;;1.80;1.70;;;;;;;9.20;nan;-24074.00;5012544;28;20227;-70
2022/12/28 05:41:47;;;;;;;2.65;2.00;;;;;;;9.58;nan;-24084.72;5013901;28;20620;-71
2022/12/28 05:44:12;;;;;;;3.20;2.00;;;;;;;9.56;nan;-24084.16;5013323;28;20172;-71
2022/12/28 05:46:37;;;;;;;2.63;2.38;;;;;;;9.12;nan;-24071.72;5010337;28;20624;-71
2022/12/28 05:49:06;;;;;;;2.05;1.90;;;;;;;9.43;nan;-24080.50;5013499;28;20208;-70
2022/12/28 05:51:32;;;;;;;3.10;2.15;;;;;;;9.50;nan;-24082.31;5013453;28;20179;-71
2022/12/28 05:53:58;;;;;;;2.42;1.98;;;;;;;8.27;nan;-24047.94;5013166;28;20172;-71
2022/12/28 05:56:27;;;;;;;2.55;2.20;;;;;;;9.40;nan;-24079.63;5013607;28;20179;-70
2022/12/28 05:59:06;;;;;;;2.25;1.90;;;;;;;9.20;nan;-24074.00;5013219;28;20180;-70
2022/12/28 06:01:34;;;;;;;2.53;2.17;;;;;;;9.25;nan;-24075.41;5013403;28;20176;-70
2022/12/28 06:04:02;;;;;;;2.20;1.85;;;;;;;9.30;nan;-24076.94;5012500;28;20226;-70
2022/12/28 06:06:29;;;;;;;5.07;1.83;;;;;;;8.93;nan;-24066.34;5014869;28;20191;-71
2022/12/28 06:08:54;;;;;;;3.42;2.25;;;;;;;9.27;nan;-24076.09;5013233;28;20211;-71
2022/12/28 06:11:22;;;;;;;4.17;2.10;;;;;;;9.28;nan;-24076.25;5012671;28;20266;-71
2022/12/28 06:13:49;;;;;;;2.38;1.98;;;;;;;9.10;nan;-24071.16;5012660;28;20249;-71
2022/12/28 06:16:19;;;;;;;2.90;2.60;;;;;;;9.52;nan;-24083.03;5012684;28;20180;-71
2022/12/28 06:18:45;;;;;;;3.38;2.50;;;;;;;9.25;nan;-24075.53;5012868;28;20241;-71
2022/12/28 06:21:23;;;;;;;5.07;2.63;;;;;;;9.43;nan;-24080.34;5012758;28;20718;-71
2022/12/28 06:23:49;;;;;;;6.17;2.10;;;;;;;9.08;nan;-24070.59;5012621;28;20603;-70
2022/12/28 06:26:17;;;;;;;3.28;2.40;;;;;;;9.49;nan;-24082.19;5012501;28;20214;-70
2022/12/28 06:28:43;;;;;;;4.13;2.25;;;;;;;9.59;nan;-24085.00;5012512;28;20199;-70
2022/12/28 06:31:17;;;;;;;2.85;2.17;;;;;;;9.86;nan;-24092.50;5012665;28;20164;-71
2022/12/28 06:33:43;;;;;;;4.20;2.80;;;;;;;8.70;nan;-24060.13;5012560;28;20549;-70
2022/12/28 06:36:12;;;;;;;2.70;2.08;;;;;;;9.59;nan;-24085.00;5012420;28;20168;-71
2022/12/28 06:38:37;;;;;;;3.40;2.78;;;;;;;9.90;nan;-24093.63;5010892;28;20269;-71
2022/12/28 06:41:08;;;;;;;5.57;2.53;;;;;;;9.79;nan;-24090.53;5012577;28;20200;-70
2022/12/28 06:43:36;;;;;;;3.33;2.45;;;;;;;9.82;nan;-24091.22;5012421;28;20270;-70
2022/12/28 06:46:02;;;;;;;2.88;2.20;;;;;;;9.89;nan;-24093.22;5012633;28;20275;-72
2022/12/28 06:48:29;;;;;;;2.45;2.25;;;;;;;9.67;nan;-24087.28;5012275;28;20272;-72
2022/12/28 06:50:59;;;;;;;3.13;2.10;;;;;;;9.57;nan;-24084.44;5012169;28;20666;-71
2022/12/28 06:53:27;;;;;;;3.17;2.10;;;;;;;9.63;nan;-24086.00;5012376;28;20175;-71
2022/12/28 06:55:58;;;;;;;4.60;2.35;;;;;;;9.81;nan;-24091.09;5011764;28;20179;-71
2022/12/28 06:58:28;;;;;;;4.97;2.83;;;;;;;10.08;nan;-24098.72;5012569;28;20186;-70
2022/12/28 07:00:54;;;;;;;4.53;2.45;;;;;;;9.48;nan;-24081.75;5011832;28;20183;-71
2022/12/28 07:03:21;;;;;;;3.75;2.50;;;;;;;9.56;nan;-24084.03;5011843;28;20302;-71
2022/12/28 07:05:47;;;;;;;6.05;2.55;;;;;;;9.79;nan;-24090.53;5011702;28;20172;-71
2022/12/28 07:08:13;;;;;;;3.25;2.30;;;;;;;10.09;nan;-24098.84;5012145;28;20186;-70
2022/12/28 07:10:39;;;;;;;5.63;2.60;;;;;;;9.85;nan;-24092.22;5012074;28;20222;-71
2022/12/28 07:13:04;;;;;;;1.98;1.77;;;;;;;9.94;nan;-24094.75;5012202;28;20172;-70
2022/12/28 07:15:30;;;;;;;4.00;2.45;;;;;;;10.00;nan;-24096.44;5012420;28;20168;-70
2022/12/28 07:17:57;;;;;;;2.67;2.03;;;;;;;10.42;nan;-24108.03;5012069;28;20184;-71
2022/12/28 07:20:23;;;;;;;4.57;2.35;;;;;;;10.27;nan;-24103.78;5011767;28;20644;-71
2022/12/28 07:22:48;;;;;;;4.15;2.33;;;;;;;9.92;nan;-24094.06;5012015;28;20168;-70
2022/12/28 07:25:13;;;;;;;2.92;2.28;;;;;;;10.45;nan;-24108.88;5012091;28;20575;-71
2022/12/28 07:27:39;;;;;;;3.60;2.60;;;;;;;10.10;nan;-24099.28;5011443;28;20607;-70
2022/12/28 07:30:05;;;;;;;5.53;2.75;;;;;;;10.40;nan;-24107.47;5011611;28;20204;-71
2022/12/28 07:32:30;;;;;;;4.80;2.40;;;;;;;10.23;nan;-24102.66;5010507;28;20544;-70
2022/12/28 07:34:55;;;;;;;2.95;2.22;;;;;;;10.39;nan;-24107.19;5011878;28;20203;-70
2022/12/28 07:37:21;;;;;;;3.35;2.80;;;;;;;10.40;nan;-24107.63;5012042;28;20156;-71
2022/12/28 07:39:46;;;;;;;5.22;3.20;;;;;;;10.73;nan;-24116.63;5011985;28;20199;-70
2022/12/28 07:42:11;;;;;;;3.70;2.63;;;;;;;10.77;nan;-24117.78;5011656;28;20180;-71
2022/12/28 07:44:41;;;;;;;5.30;2.53;;;;;;;10.49;nan;-24110.16;5010369;28;20575;-71
2022/12/28 07:47:07;;;;;;;4.20;2.50;;;;;;;10.54;nan;-24111.56;5011546;28;20173;-70
2022/12/28 07:49:33;;;;;;;4.45;2.22;;;;;;;10.49;nan;-24110.00;5011832;28;20199;-70
2022/12/28 07:51:58;;;;;;;7.47;2.67;;;;;;;10.38;nan;-24107.03;5010132;28;20275;-70
2022/12/28 07:54:24;;;;;;;5.47;2.70;;;;;;;10.24;nan;-24103.09;5011568;28;20204;-70
2022/12/28 07:56:49;;;;;;;3.80;2.72;;;;;;;10.02;nan;-24096.88;5011833;28;20176;-70
2022/12/28 07:59:15;;;;;;;7.10;3.72;;;;;;;10.17;nan;-24101.13;5010490;28;20647;-69
2022/12/28 08:01:40;;;;;;;4.85;3.05;;;;;;;10.51;nan;-24110.72;5011868;28;20215;-70
2022/12/28 08:04:08;;;;;;;4.97;2.72;;;;;;;10.59;nan;-24112.97;5014881;28;20220;-70
2022/12/28 08:06:36;;;;;;;5.03;3.15;;;;;;;10.43;nan;-24108.47;5015321;28;20607;-71
2022/12/28 08:09:03;;;;;;;4.20;2.13;;;;;;;10.45;nan;-24109.03;5014870;28;20203;-70
2022/12/28 08:11:31;;;;;;;6.40;2.78;;;;;;;10.17;nan;-24101.13;5015186;28;20164;-71
2022/12/28 08:13:58;;;;;;;5.03;3.03;;;;;;;10.24;nan;-24103.09;5015125;28;20175;-72
2022/12/28 08:16:25;;;;;;;3.97;2.50;;;;;;;10.12;nan;-24099.84;5014798;28;20160;-71
2022/12/28 08:18:51;;;;;;;3.85;2.65;;;;;;;10.32;nan;-24105.34;5015013;28;20184;-71
2022/12/28 08:21:20;;;;;;;8.43;2.70;;;;;;;10.63;nan;-24114.09;5015354;28;20168;-70
2022/12/28 08:23:46;;;;;;;8.98;2.70;;;;;;;10.70;nan;-24115.94;5014708;28;20178;-70
2022/12/28 08:26:18;;;;;;;3.22;2.42;;;;;;;10.71;nan;-24116.22;5013415;28;20203;-69
2022/12/28 08:28:45;;;;;;;3.85;2.90;;;;;;;10.51;nan;-24110.56;5012954;28;20683;-70
2022/12/28 08:31:17;;;;;;;4.80;3.40;;;;;;;10.48;nan;-24109.88;5015407;28;20190;-69
2022/12/28 08:33:42;;;;;;;9.98;4.32;;;;;;;10.70;nan;-24115.94;5014137;28;20179;-69
2022/12/28 08:36:09;;;;;;;6.95;3.75;;;;;;;10.79;nan;-24118.34;5019445;28;20226;-70
2022/12/28 08:38:36;;;;;;;6.88;3.97;;;;;;;10.38;nan;-24106.91;5017900;28;20184;-69
2022/12/28 08:41:04;;;;;;;12.60;4.28;;;;;;;10.66;nan;-24114.66;5018719;28;20569;-69
2022/12/28 08:43:31;;;;;;;11.27;4.50;;;;;;;10.63;nan;-24113.97;5017874;28;20188;-69
2022/12/28 08:46:05;;;;;;;9.85;5.43;;;;;;;10.27;nan;-24103.94;5013894;28;20184;-70
2022/12/28 08:48:32;;;;;;;5.57;3.83;;;;;;;10.05;nan;-24097.72;4995027;28;20539;-70
2022/12/28 08:51:06;;;;;;;7.82;4.13;;;;;;;9.77;nan;-24090.09;5000247;28;20192;-70
2022/12/28 08:53:31;;;;;;;6.88;4.80;;;;;;;10.44;nan;-24108.75;5014652;28;20634;-71
2022/12/28 08:56:15;;;;;;;8.57;4.78;;;;;;;10.39;nan;-24107.19;5019035;28;20260;-70
2022/12/28 08:58:42;;;;;;;7.72;4.30;;;;;;;10.17;nan;-24101.13;5014791;28;20176;-70
2022/12/28 09:01:10;;;;;;;10.98;4.57;;;;;;;10.52;nan;-24111.00;5017916;28;20196;-70
2022/12/28 09:03:37;;;;;;;5.80;3.72;;;;;;;9.97;nan;-24095.47;5015866;28;20258;-70
2022/12/28 09:06:08;;;;;;;7.68;3.40;;;;;;;9.97;nan;-24095.47;5013818;28;20215;-70
2022/12/28 09:08:35;;;;;;;6.78;4.47;;;;;;;9.91;nan;-24093.91;5014463;28;20222;-69
2022/12/28 09:11:03;;;;;;;9.68;3.80;;;;;;;10.01;nan;-24096.72;5014100;28;20690;-70
2022/12/28 09:13:29;;;;;;;6.70;3.55;;;;;;;10.12;nan;-24099.69;5013761;28;20179;-70
2022/12/28 09:16:03;;;;;;;5.53;3.53;;;;;;;9.55;nan;-24083.88;5017050;28;20199;-71
2022/12/28 09:18:29;;;;;;;6.72;3.78;;;;;;;9.70;nan;-24088.13;5017288;28;20210;-71
2022/12/28 09:20:55;;;;;;;10.30;4.38;;;;;;;9.96;nan;-24095.19;5015941;28;20191;-70
2022/12/28 09:23:21;;;;;;;7.18;4.13;;;;;;;9.71;nan;-24088.25;5018392;28;20608;-71
2022/12/28 09:25:47;;;;;;;12.35;4.25;;;;;;;9.71;nan;-24088.25;5019111;28;20237;-71
2022/12/28 09:28:12;;;;;;;8.68;4.82;;;;;;;9.95;nan;-24094.91;5016989;28;20187;-70
2022/12/28 09:30:39;;;;;;;9.47;4.30;;;;;;;9.92;nan;-24094.19;5017225;28;20285;-71
2022/12/28 09:35:49;;;;;;;9.13;5.57;;;;;;;9.75;nan;-24089.53;5013819;28;20233;-70
2022/12/28 09:38:14;;;;;;;5.07;3.67;;;;;;;9.77;nan;-24089.94;5018445;28;20179;-70
2022/12/28 09:40:40;;;;;;;10.93;4.13;;;;;;;9.59;nan;-24085.00;5016796;28;20648;-73
2022/12/28 09:43:10;;;;;;;9.85;4.20;;;;;;;9.88;nan;-24092.91;5013324;28;20187;-71
2022/12/28 09:45:36;;;;;;;10.52;4.68;;;;;;;9.65;nan;-24086.56;5013418;28;20555;-70
2022/12/28 09:48:09;;;;;;;9.93;4.43;;;;;;;10.15;nan;-24100.53;5015447;28;20180;-71
2022/12/28 09:50:36;;;;;;;6.25;3.80;;;;;;;10.19;nan;-24101.69;5015521;28;20214;-72
2022/12/28 09:53:04;;;;;;;5.60;3.53;;;;;;;10.17;nan;-24101.13;5020885;28;20249;-71
2022/12/28 09:55:37;;;;;;;6.35;3.60;;;;;;;10.13;nan;-24100.13;5017460;28;20179;-70
2022/12/28 09:58:05;;;;;;;5.93;3.50;;;;;;;10.14;nan;-24100.25;5017632;28;20215;-70
2022/12/28 10:00:41;;;;;;;6.28;3.70;;;;;;;9.86;nan;-24092.50;5013065;28;20199;-70
2022/12/28 10:03:16;;;;;;;4.47;3.42;;;;;;;10.32;nan;-24105.34;5017612;28;20179;-70
2022/12/28 10:05:41;;;;;;;5.88;3.42;;;;;;;9.90;nan;-24093.47;5019383;28;20191;-71
2022/12/28 10:08:12;;;;;;;5.90;3.33;;;;;;;10.14;nan;-24100.25;5018621;28;20473;-71
2022/12/28 10:10:41;;;;;;;8.48;3.78;;;;;;;10.23;nan;-24102.66;5017563;28;20215;-71
2022/12/28 10:13:16;;;;;;;5.90;3.63;;;;;;;10.37;nan;-24106.63;5017321;28;20270;-70
2022/12/28 10:15:41;;;;;;;4.35;2.90;;;;;;;10.28;nan;-24104.22;5017565;28;20183;-71
2022/12/28 10:18:07;;;;;;;6.25;3.20;;;;;;;10.24;nan;-24103.09;5017427;28;20188;-71
2022/12/28 10:20:33;;;;;;;5.82;3.13;;;;;;;9.94;nan;-24094.63;5014467;28;20230;-71
2022/12/28 10:22:59;;;;;;;6.40;3.47;;;;;;;9.91;nan;-24093.78;5016342;28;20167;-71
2022/12/28 10:25:25;;;;;;;5.68;3.13;;;;;;;10.17;nan;-24101.25;5012613;28;20187;-71
2022/12/28 10:27:52;;;;;;;8.57;3.88;;;;;;;10.58;nan;-24112.69;5014842;28;20184;-70
2022/12/28 10:30:25;;;;;;;6.95;3.55;;;;;;;10.55;nan;-24111.69;5011943;28;20192;-71
2022/12/28 10:32:55;;;;;;;6.88;3.50;;;;;;;10.55;nan;-24111.69;5016070;28;20184;-70
2022/12/28 10:35:51;;;;;;;5.43;3.15;;;;;;;10.36;nan;-24106.34;5017490;28;20652;-71
2022/12/28 10:38:27;;;;;;;5.45;4.13;;;;;;;10.17;nan;-24101.25;5012051;28;20211;-70
2022/12/28 10:40:55;;;;;;;7.20;4.32;;;;;;;10.02;nan;-24097.03;5016581;28;20195;-71
2022/12/28 10:43:21;;;;;;;6.18;4.30;;;;;;;10.12;nan;-24099.69;5011950;28;20238;-71
2022/12/28 10:45:50;;;;;;;12.77;4.73;;;;;;;9.80;nan;-24090.81;5012071;28;20184;-70
2022/12/28 10:48:23;;;;;;;7.43;4.50;;;;;;;9.51;nan;-24082.59;5012169;28;20659;-70
2022/12/28 10:50:53;;;;;;;7.17;4.30;;;;;;;9.34;nan;-24077.81;5012342;28;20211;-70
2022/12/28 10:53:26;;;;;;;6.47;4.43;;;;;;;10.15;nan;-24100.53;5011912;28;20170;-70
2022/12/28 10:56:04;;;;;;;7.30;3.70;;;;;;;10.31;nan;-24105.06;5012139;28;20165;-70
2022/12/28 10:58:29;;;;;;;7.07;4.13;;;;;;;9.93;nan;-24094.47;5012667;28;20640;-71
2022/12/28 11:01:14;;;;;;;5.63;3.50;;;;;;;9.97;nan;-24095.47;5017914;28;20237;-70
2022/12/28 11:03:43;;;;;;;4.63;3.40;;;;;;;10.00;nan;-24096.44;5013262;28;20230;-70
2022/12/28 11:06:20;;;;;;;6.00;3.53;;;;;;;10.28;nan;-24104.22;5016296;28;20253;-70
2022/12/28 11:09:05;;;;;;;5.88;3.45;;;;;;;9.50;nan;-24082.31;5016510;28;20211;-71
2022/12/28 11:11:30;;;;;;;5.40;3.80;;;;;;;9.47;nan;-24081.63;5014823;28;20183;-72
2022/12/28 11:14:14;;;;;;;5.40;3.10;;;;;;;9.83;nan;-24091.50;5011838;28;20565;-71
2022/12/28 11:16:40;;;;;;;4.53;3.00;;;;;;;9.66;nan;-24086.84;5013695;28;20674;-71
2022/12/28 11:19:06;;;;;;;8.13;3.13;;;;;;;9.94;nan;-24094.75;5012496;28;20618;-71
2022/12/28 11:21:33;;;;;;;5.70;3.33;;;;;;;9.86;nan;-24092.50;5016964;28;20283;-71
2022/12/28 11:23:59;;;;;;;10.23;3.77;;;;;;;9.94;nan;-24094.75;5013335;28;20195;-71
2022/12/28 11:26:27;;;;;;;9.73;3.67;;;;;;;9.90;nan;-24093.63;5012092;28;20184;-71
2022/12/28 11:28:53;;;;;;;5.47;3.30;;;;;;;9.54;nan;-24083.59;5011900;28;20295;-69
2022/12/28 11:31:27;;;;;;;4.33;3.10;;;;;;;9.52;nan;-24083.03;5011954;28;20183;-71
2022/12/28 11:33:57;;;;;;;4.43;3.00;;;;;;;9.90;nan;-24093.47;5011927;28;20172;-71
2022/12/28 11:36:25;;;;;;;5.57;3.63;;;;;;;9.71;nan;-24088.25;5012011;28;20169;-69
2022/12/28 11:38:53;;;;;;;6.50;3.22;;;;;;;9.67;nan;-24087.28;5016114;28;20171;-69
2022/12/28 11:41:26;;;;;;;5.72;3.28;;;;;;;9.82;nan;-24091.22;5015672;28;20164;-72
2022/12/28 11:43:56;;;;;;;4.32;3.22;;;;;;;9.92;nan;-24094.06;5015554;28;20168;-71
2022/12/28 11:46:22;;;;;;;5.47;3.20;;;;;;;9.92;nan;-24094.19;5020100;28;20548;-70
2022/12/28 11:48:59;;;;;;;6.47;4.03;;;;;;;9.93;nan;-24094.34;5015864;28;20291;-70
2022/12/28 11:51:26;;;;;;;5.68;3.85;;;;;;;9.98;nan;-24095.88;5014190;28;20187;-69
2022/12/28 11:53:59;;;;;;;4.65;3.17;;;;;;;9.96;nan;-24095.31;5015135;28;20215;-69
2022/12/28 11:56:43;;;;;;;9.50;3.40;;;;;;;9.67;nan;-24087.13;5015575;28;20246;-70
2022/12/28 11:59:27;;;;;;;5.57;3.22;;;;;;;10.08;nan;-24098.56;5015334;28;20160;-71
2022/12/28 12:01:58;;;;;;;7.00;3.58;;;;;;;10.14;nan;-24100.25;5015830;28;20184;-70
2022/12/28 12:04:39;;;;;;;7.15;4.00;;;;;;;9.94;nan;-24094.75;5017441;28;20223;-70
2022/12/28 12:07:04;;;;;;;7.03;3.30;;;;;;;10.51;nan;-24110.72;5021882;28;20237;-72
2022/12/28 12:09:31;;;;;;;5.47;3.65;;;;;;;10.58;nan;-24112.56;5019858;28;20203;-72
2022/12/28 12:12:05;;;;;;;6.70;3.47;;;;;;;10.63;nan;-24113.97;5019483;28;20179;-71
2022/12/28 12:14:36;;;;;;;6.70;3.47;;;;;;;10.19;nan;-24101.69;5015039;28;20203;-69
2022/12/28 12:17:22;;;;;;;6.65;3.28;;;;;;;10.65;nan;-24114.53;5020997;28;20195;-71
2022/12/28 12:19:53;;;;;;;7.55;3.97;;;;;;;10.46;nan;-24109.31;5018909;28;20176;-69
2022/12/28 12:22:34;;;;;;;5.20;3.38;;;;;;;10.35;nan;-24106.06;5019973;28;20295;-70